sensor_id;sensor_type;location;lat;lon;timestamp;pressure;altitude;pressure_sealevel;temperature;humidity
38163;BME280;23977;53.078;18.248;2023-03-16T00:02:03;101552.78;;;-2.94;100.00
38163;BME280;23977;53.078;18.248;2023-03-16T00:04:30;101578.59;;;-2.86;100.00
38163;BME280;23977;53.078;18.248;2023-03-16T00:06:57;101545.94;;;-2.97;100.00
38163;BME280;23977;53.078;18.248;2023-03-16T00:09:22;101556.47;;;-3.00;100.00
38163;BME280;23977;53.078;18.248;2023-03-16T00:12:00;101503.53;;;-3.25;100.00
38163;BME280;23977;53.078;18.248;2023-03-16T00:14:29;101578.09;;;-2.98;100.00
38163;BME280;23977;53.078;18.248;2023-03-16T00:16:55;101587.66;;;-2.73;100.00
38163;BME280;23977;53.078;18.248;2023-03-16T00:19:21;101579.50;;;-2.64;100.00
38163;BME280;23977;53.078;18.248;2023-03-16T00:21:48;101522.28;;;-2.90;100.00
38163;BME280;23977;53.078;18.248;2023-03-16T00:24:15;101568.66;;;-2.51;100.00
38163;BME280;23977;53.078;18.248;2023-03-16T00:26:43;101574.88;;;-2.32;100.00
38163;BME280;23977;53.078;18.248;2023-03-16T00:29:09;101546.66;;;-2.68;100.00
38163;BME280;23977;53.078;18.248;2023-03-16T00:31:37;101579.63;;;-2.67;100.00
38163;BME280;23977;53.078;18.248;2023-03-16T00:34:03;101502.19;;;-3.12;100.00
38163;BME280;23977;53.078;18.248;2023-03-16T00:36:29;101546.56;;;-2.90;100.00
38163;BME280;23977;53.078;18.248;2023-03-16T00:38:55;101585.28;;;-2.79;100.00
38163;BME280;23977;53.078;18.248;2023-03-16T00:41:20;101550.69;;;-3.08;100.00
38163;BME280;23977;53.078;18.248;2023-03-16T00:43:47;101595.59;;;-2.76;100.00
38163;BME280;23977;53.078;18.248;2023-03-16T00:46:15;101597.59;;;-2.84;100.00
38163;BME280;23977;53.078;18.248;2023-03-16T00:48:42;101591.81;;;-2.92;100.00
38163;BME280;23977;53.078;18.248;2023-03-16T00:51:11;101582.09;;;-2.87;100.00
38163;BME280;23977;53.078;18.248;2023-03-16T00:53:38;101581.44;;;-2.69;100.00
38163;BME280;23977;53.078;18.248;2023-03-16T00:56:04;101539.84;;;-2.72;100.00
38163;BME280;23977;53.078;18.248;2023-03-16T00:58:31;101549.84;;;-2.59;100.00
38163;BME280;23977;53.078;18.248;2023-03-16T01:01:06;101593.44;;;-2.39;100.00
38163;BME280;23977;53.078;18.248;2023-03-16T01:03:32;101580.34;;;-2.38;100.00
38163;BME280;23977;53.078;18.248;2023-03-16T01:06:06;101556.06;;;-2.40;100.00
38163;BME280;23977;53.078;18.248;2023-03-16T01:08:32;101596.66;;;-2.09;100.00
38163;BME280;23977;53.078;18.248;2023-03-16T01:11:03;101570.91;;;-2.42;100.00
38163;BME280;23977;53.078;18.248;2023-03-16T01:13:29;101595.63;;;-2.29;100.00
38163;BME280;23977;53.078;18.248;2023-03-16T01:15:55;101579.97;;;-2.52;100.00
38163;BME280;23977;53.078;18.248;2023-03-16T01:18:20;101568.56;;;-2.73;100.00
38163;BME280;23977;53.078;18.248;2023-03-16T01:20:47;101570.28;;;-2.72;100.00
38163;BME280;23977;53.078;18.248;2023-03-16T01:23:19;101558.41;;;-2.56;100.00
38163;BME280;23977;53.078;18.248;2023-03-16T01:25:45;101609.00;;;-2.14;100.00
38163;BME280;23977;53.078;18.248;2023-03-16T01:28:23;101605.06;;;-2.25;100.00
38163;BME280;23977;53.078;18.248;2023-03-16T01:30:50;101531.97;;;-2.70;100.00
38163;BME280;23977;53.078;18.248;2023-03-16T01:33:21;101611.00;;;-2.45;100.00
38163;BME280;23977;53.078;18.248;2023-03-16T01:35:53;101606.97;;;-2.30;100.00
38163;BME280;23977;53.078;18.248;2023-03-16T01:38:19;101607.41;;;-2.18;100.00
38163;BME280;23977;53.078;18.248;2023-03-16T01:40:47;101603.22;;;-2.22;100.00
38163;BME280;23977;53.078;18.248;2023-03-16T01:43:15;101607.66;;;-2.25;100.00
38163;BME280;23977;53.078;18.248;2023-03-16T01:48:45;101617.94;;;-2.21;100.00
38163;BME280;23977;53.078;18.248;2023-03-16T01:51:19;101558.88;;;-2.70;100.00
38163;BME280;23977;53.078;18.248;2023-03-16T01:53:55;101623.88;;;-2.16;100.00
38163;BME280;23977;53.078;18.248;2023-03-16T01:56:30;101618.25;;;-2.06;100.00
38163;BME280;23977;53.078;18.248;2023-03-16T01:58:59;101622.09;;;-2.16;100.00
38163;BME280;23977;53.078;18.248;2023-03-16T02:01:27;101622.31;;;-2.22;100.00
38163;BME280;23977;53.078;18.248;2023-03-16T02:04:03;101628.72;;;-2.31;100.00
38163;BME280;23977;53.078;18.248;2023-03-16T02:06:33;101578.66;;;-2.64;100.00
38163;BME280;23977;53.078;18.248;2023-03-16T02:09:00;101631.81;;;-2.19;100.00
38163;BME280;23977;53.078;18.248;2023-03-16T02:11:27;101597.66;;;-2.37;100.00
38163;BME280;23977;53.078;18.248;2023-03-16T02:13:53;101560.41;;;-2.88;100.00
38163;BME280;23977;53.078;18.248;2023-03-16T02:16:23;101586.66;;;-2.69;100.00
38163;BME280;23977;53.078;18.248;2023-03-16T02:18:49;101567.50;;;-2.68;100.00
38163;BME280;23977;53.078;18.248;2023-03-16T02:23:50;101564.53;;;-2.82;100.00
38163;BME280;23977;53.078;18.248;2023-03-16T02:26:26;101572.88;;;-2.72;100.00
38163;BME280;23977;53.078;18.248;2023-03-16T02:31:25;101617.03;;;-2.44;100.00
38163;BME280;23977;53.078;18.248;2023-03-16T02:33:53;101605.34;;;-2.57;100.00
38163;BME280;23977;53.078;18.248;2023-03-16T02:36:19;101618.75;;;-2.43;100.00
38163;BME280;23977;53.078;18.248;2023-03-16T02:38:45;101635.75;;;-2.33;100.00
38163;BME280;23977;53.078;18.248;2023-03-16T02:41:19;101638.00;;;-2.47;100.00
38163;BME280;23977;53.078;18.248;2023-03-16T02:43:59;101582.19;;;-2.90;100.00
38163;BME280;23977;53.078;18.248;2023-03-16T02:46:27;101639.38;;;-2.37;100.00
38163;BME280;23977;53.078;18.248;2023-03-16T02:51:28;101647.25;;;-2.64;100.00
38163;BME280;23977;53.078;18.248;2023-03-16T02:53:54;101648.38;;;-2.46;100.00
38163;BME280;23977;53.078;18.248;2023-03-16T02:56:20;101596.28;;;-2.71;100.00
38163;BME280;23977;53.078;18.248;2023-03-16T02:58:46;101645.38;;;-2.35;100.00
38163;BME280;23977;53.078;18.248;2023-03-16T03:01:12;101626.16;;;-2.56;100.00
38163;BME280;23977;53.078;18.248;2023-03-16T03:03:38;101599.50;;;-2.64;100.00
38163;BME280;23977;53.078;18.248;2023-03-16T03:06:04;101541.25;;;-2.87;100.00
38163;BME280;23977;53.078;18.248;2023-03-16T03:08:30;101605.16;;;-2.51;100.00
38163;BME280;23977;53.078;18.248;2023-03-16T03:10:58;101640.72;;;-2.27;100.00
38163;BME280;23977;53.078;18.248;2023-03-16T03:13:23;101578.78;;;-2.92;100.00
38163;BME280;23977;53.078;18.248;2023-03-16T03:15:49;101651.03;;;-2.47;100.00
38163;BME280;23977;53.078;18.248;2023-03-16T03:18:14;101596.38;;;-2.99;100.00
38163;BME280;23977;53.078;18.248;2023-03-16T03:20:40;101645.56;;;-2.65;100.00
38163;BME280;23977;53.078;18.248;2023-03-16T03:23:06;101638.56;;;-2.63;100.00
38163;BME280;23977;53.078;18.248;2023-03-16T03:25:32;101648.97;;;-2.37;100.00
38163;BME280;23977;53.078;18.248;2023-03-16T03:27:59;101654.84;;;-2.32;100.00
38163;BME280;23977;53.078;18.248;2023-03-16T03:30:27;101618.59;;;-2.64;100.00
38163;BME280;23977;53.078;18.248;2023-03-16T03:32:53;101558.78;;;-3.17;100.00
38163;BME280;23977;53.078;18.248;2023-03-16T03:35:19;101543.59;;;-3.29;100.00
38163;BME280;23977;53.078;18.248;2023-03-16T03:37:45;101659.34;;;-2.61;100.00
38163;BME280;23977;53.078;18.248;2023-03-16T03:40:13;101656.75;;;-2.61;100.00
38163;BME280;23977;53.078;18.248;2023-03-16T03:42:40;101605.66;;;-2.92;100.00
38163;BME280;23977;53.078;18.248;2023-03-16T03:45:07;101656.88;;;-2.66;100.00
38163;BME280;23977;53.078;18.248;2023-03-16T03:47:33;101660.56;;;-2.46;100.00
38163;BME280;23977;53.078;18.248;2023-03-16T03:49:59;101671.38;;;-2.84;100.00
38163;BME280;23977;53.078;18.248;2023-03-16T03:52:25;101571.41;;;-3.58;100.00
38163;BME280;23977;53.078;18.248;2023-03-16T03:54:50;101677.44;;;-2.83;100.00
38163;BME280;23977;53.078;18.248;2023-03-16T03:57:16;101656.94;;;-2.92;100.00
38163;BME280;23977;53.078;18.248;2023-03-16T03:59:42;101570.19;;;-3.46;100.00
38163;BME280;23977;53.078;18.248;2023-03-16T04:02:09;101665.13;;;-2.78;100.00
38163;BME280;23977;53.078;18.248;2023-03-16T04:04:35;101600.78;;;-3.01;100.00
38163;BME280;23977;53.078;18.248;2023-03-16T04:07:01;101658.38;;;-2.58;100.00
38163;BME280;23977;53.078;18.248;2023-03-16T04:09:28;101653.00;;;-2.79;100.00
38163;BME280;23977;53.078;18.248;2023-03-16T04:11:54;101603.66;;;-2.84;100.00
38163;BME280;23977;53.078;18.248;2023-03-16T04:14:22;101658.00;;;-2.48;100.00
38163;BME280;23977;53.078;18.248;2023-03-16T04:16:47;101594.31;;;-2.89;100.00
38163;BME280;23977;53.078;18.248;2023-03-16T04:19:13;101616.09;;;-2.67;100.00
38163;BME280;23977;53.078;18.248;2023-03-16T04:21:39;101647.63;;;-2.49;100.00
38163;BME280;23977;53.078;18.248;2023-03-16T04:24:05;101669.97;;;-2.42;100.00
38163;BME280;23977;53.078;18.248;2023-03-16T04:26:31;101609.41;;;-2.74;100.00
38163;BME280;23977;53.078;18.248;2023-03-16T04:28:57;101643.56;;;-2.56;100.00
38163;BME280;23977;53.078;18.248;2023-03-16T04:31:23;101663.06;;;-2.43;100.00
38163;BME280;23977;53.078;18.248;2023-03-16T04:33:49;101661.06;;;-2.62;100.00
38163;BME280;23977;53.078;18.248;2023-03-16T04:36:20;101658.13;;;-2.76;100.00
38163;BME280;23977;53.078;18.248;2023-03-16T04:38:49;101673.34;;;-2.40;100.00
38163;BME280;23977;53.078;18.248;2023-03-16T04:41:14;101677.88;;;-2.45;100.00
38163;BME280;23977;53.078;18.248;2023-03-16T04:43:40;101668.69;;;-2.55;100.00
38163;BME280;23977;53.078;18.248;2023-03-16T04:46:07;101677.78;;;-2.42;100.00
38163;BME280;23977;53.078;18.248;2023-03-16T04:48:34;101684.28;;;-2.29;100.00
38163;BME280;23977;53.078;18.248;2023-03-16T04:51:00;101688.53;;;-2.26;100.00
38163;BME280;23977;53.078;18.248;2023-03-16T04:53:29;101626.06;;;-2.78;100.00
38163;BME280;23977;53.078;18.248;2023-03-16T04:55:57;101680.03;;;-2.56;100.00
38163;BME280;23977;53.078;18.248;2023-03-16T04:58:23;101679.50;;;-2.41;100.00
38163;BME280;23977;53.078;18.248;2023-03-16T05:00:51;101691.16;;;-2.51;100.00
38163;BME280;23977;53.078;18.248;2023-03-16T05:03:17;101680.97;;;-2.34;100.00
38163;BME280;23977;53.078;18.248;2023-03-16T05:05:45;101687.41;;;-2.44;100.00
38163;BME280;23977;53.078;18.248;2023-03-16T05:08:11;101676.63;;;-2.58;100.00
38163;BME280;23977;53.078;18.248;2023-03-16T05:10:37;101688.41;;;-2.48;100.00
38163;BME280;23977;53.078;18.248;2023-03-16T05:13:05;101583.88;;;-3.14;100.00
38163;BME280;23977;53.078;18.248;2023-03-16T05:15:31;101613.13;;;-2.81;100.00
38163;BME280;23977;53.078;18.248;2023-03-16T05:17:56;101667.34;;;-2.42;100.00
38163;BME280;23977;53.078;18.248;2023-03-16T05:20:23;101670.19;;;-2.23;100.00
38163;BME280;23977;53.078;18.248;2023-03-16T05:22:49;101696.31;;;-2.01;100.00
38163;BME280;23977;53.078;18.248;2023-03-16T05:25:16;101696.03;;;-1.93;100.00
38163;BME280;23977;53.078;18.248;2023-03-16T05:27:48;101691.66;;;-1.69;100.00
38163;BME280;23977;53.078;18.248;2023-03-16T05:30:15;101692.47;;;-1.45;100.00
38163;BME280;23977;53.078;18.248;2023-03-16T05:32:42;101666.78;;;-1.34;100.00
38163;BME280;23977;53.078;18.248;2023-03-16T05:35:08;101699.66;;;-1.06;100.00
38163;BME280;23977;53.078;18.248;2023-03-16T05:37:39;101618.06;;;-1.33;100.00
38163;BME280;23977;53.078;18.248;2023-03-16T05:40:06;101703.38;;;-0.69;100.00
38163;BME280;23977;53.078;18.248;2023-03-16T05:42:45;101698.47;;;-0.56;100.00
38163;BME280;23977;53.078;18.248;2023-03-16T05:45:13;101695.13;;;-0.39;100.00
38163;BME280;23977;53.078;18.248;2023-03-16T05:47:40;101707.41;;;0.00;100.00
38163;BME280;23977;53.078;18.248;2023-03-16T05:50:07;101685.34;;;0.06;100.00
38163;BME280;23977;53.078;18.248;2023-03-16T05:52:37;101593.50;;;0.29;100.00
38163;BME280;23977;53.078;18.248;2023-03-16T05:55:04;101648.56;;;2.18;100.00
38163;BME280;23977;53.078;18.248;2023-03-16T05:57:31;101672.41;;;4.12;100.00
38163;BME280;23977;53.078;18.248;2023-03-16T05:59:56;101697.19;;;5.71;100.00
38163;BME280;23977;53.078;18.248;2023-03-16T06:02:22;101708.16;;;6.79;100.00
38163;BME280;23977;53.078;18.248;2023-03-16T06:04:48;101701.28;;;8.28;79.09
38163;BME280;23977;53.078;18.248;2023-03-16T06:07:14;101678.91;;;9.50;62.81
38163;BME280;23977;53.078;18.248;2023-03-16T06:09:39;101699.59;;;10.80;55.58
38163;BME280;23977;53.078;18.248;2023-03-16T06:12:05;101700.22;;;11.79;52.30
38163;BME280;23977;53.078;18.248;2023-03-16T06:14:31;101710.88;;;12.54;54.98
38163;BME280;23977;53.078;18.248;2023-03-16T06:16:57;101709.34;;;14.12;45.87
38163;BME280;23977;53.078;18.248;2023-03-16T06:19:22;101670.06;;;14.88;44.34
38163;BME280;23977;53.078;18.248;2023-03-16T06:21:48;101705.53;;;15.97;43.33
38163;BME280;23977;53.078;18.248;2023-03-16T06:24:14;101690.59;;;16.34;39.79
38163;BME280;23977;53.078;18.248;2023-03-16T06:26:40;101659.00;;;16.05;38.79
38163;BME280;23977;53.078;18.248;2023-03-16T06:29:05;101666.38;;;16.11;38.33
38163;BME280;23977;53.078;18.248;2023-03-16T06:31:31;101698.75;;;16.49;38.85
38163;BME280;23977;53.078;18.248;2023-03-16T06:33:59;101678.03;;;16.89;38.46
38163;BME280;23977;53.078;18.248;2023-03-16T06:36:24;101679.19;;;18.16;34.85
38163;BME280;23977;53.078;18.248;2023-03-16T06:38:50;101692.53;;;19.47;33.41
38163;BME280;23977;53.078;18.248;2023-03-16T06:41:16;101686.06;;;20.59;30.99
38163;BME280;23977;53.078;18.248;2023-03-16T06:43:41;101699.03;;;20.70;31.41
38163;BME280;23977;53.078;18.248;2023-03-16T06:46:08;101662.63;;;22.25;29.32
38163;BME280;23977;53.078;18.248;2023-03-16T06:48:33;101701.31;;;22.52;29.29
38163;BME280;23977;53.078;18.248;2023-03-16T06:50:59;101667.59;;;23.31;27.46
38163;BME280;23977;53.078;18.248;2023-03-16T06:53:25;101706.81;;;24.04;26.25
38163;BME280;23977;53.078;18.248;2023-03-16T06:55:52;101691.41;;;23.54;26.13
38163;BME280;23977;53.078;18.248;2023-03-16T06:58:18;101705.72;;;24.05;26.26
38163;BME280;23977;53.078;18.248;2023-03-16T07:00:43;101700.44;;;24.28;25.41
38163;BME280;23977;53.078;18.248;2023-03-16T07:03:10;101663.50;;;25.35;23.93
38163;BME280;23977;53.078;18.248;2023-03-16T07:05:54;101714.63;;;26.04;22.83
38163;BME280;23977;53.078;18.248;2023-03-16T07:08:20;101703.03;;;25.85;24.04
38163;BME280;23977;53.078;18.248;2023-03-16T07:10:46;101639.19;;;24.56;25.24
38163;BME280;23977;53.078;18.248;2023-03-16T07:13:12;101696.06;;;26.87;23.34
38163;BME280;23977;53.078;18.248;2023-03-16T07:15:39;101703.91;;;27.91;21.56
38163;BME280;23977;53.078;18.248;2023-03-16T07:18:05;101695.25;;;28.65;20.88
38163;BME280;23977;53.078;18.248;2023-03-16T07:20:31;101717.53;;;29.06;21.01
38163;BME280;23977;53.078;18.248;2023-03-16T07:22:57;101712.34;;;29.42;19.53
38163;BME280;23977;53.078;18.248;2023-03-16T07:25:23;101719.19;;;29.07;20.40
38163;BME280;23977;53.078;18.248;2023-03-16T07:27:49;101693.56;;;29.24;20.07
38163;BME280;23977;53.078;18.248;2023-03-16T07:30:17;101713.44;;;28.76;20.45
38163;BME280;23977;53.078;18.248;2023-03-16T07:32:43;101687.31;;;29.76;19.27
38163;BME280;23977;53.078;18.248;2023-03-16T07:35:09;101692.59;;;31.03;18.26
38163;BME280;23977;53.078;18.248;2023-03-16T07:37:36;101698.53;;;29.69;19.76
38163;BME280;23977;53.078;18.248;2023-03-16T07:40:04;101714.28;;;30.63;19.37
38163;BME280;23977;53.078;18.248;2023-03-16T07:42:32;101700.75;;;31.75;18.57
38163;BME280;23977;53.078;18.248;2023-03-16T07:45:01;101700.56;;;29.89;19.01
38163;BME280;23977;53.078;18.248;2023-03-16T07:47:28;101717.50;;;26.95;21.45
38163;BME280;23977;53.078;18.248;2023-03-16T07:49:56;101670.91;;;23.33;24.67
38163;BME280;23977;53.078;18.248;2023-03-16T07:52:23;101731.56;;;20.97;28.06
38163;BME280;23977;53.078;18.248;2023-03-16T07:54:50;101700.91;;;18.29;31.00
38163;BME280;23977;53.078;18.248;2023-03-16T07:57:16;101697.38;;;19.30;32.12
38163;BME280;23977;53.078;18.248;2023-03-16T07:59:43;101704.09;;;23.85;26.51
38163;BME280;23977;53.078;18.248;2023-03-16T08:02:13;101725.84;;;24.22;25.51
38163;BME280;23977;53.078;18.248;2023-03-16T08:04:39;101700.34;;;21.55;27.21
38163;BME280;23977;53.078;18.248;2023-03-16T08:07:08;101725.69;;;18.76;31.36
38163;BME280;23977;53.078;18.248;2023-03-16T08:09:34;101734.53;;;15.94;35.84
38163;BME280;23977;53.078;18.248;2023-03-16T08:12:02;101708.44;;;15.30;36.71
38163;BME280;23977;53.078;18.248;2023-03-16T08:14:28;101717.13;;;14.40;38.61
38163;BME280;23977;53.078;18.248;2023-03-16T08:16:54;101702.84;;;13.62;40.57
38163;BME280;23977;53.078;18.248;2023-03-16T08:19:20;101735.19;;;13.51;41.42
38163;BME280;23977;53.078;18.248;2023-03-16T08:21:46;101743.34;;;13.13;42.09
38163;BME280;23977;53.078;18.248;2023-03-16T08:24:12;101704.41;;;12.29;43.39
38163;BME280;23977;53.078;18.248;2023-03-16T08:26:38;101743.34;;;11.06;46.88
38163;BME280;23977;53.078;18.248;2023-03-16T08:29:05;101725.22;;;10.30;49.41
38163;BME280;23977;53.078;18.248;2023-03-16T08:31:31;101732.31;;;9.89;51.66
38163;BME280;23977;53.078;18.248;2023-03-16T08:34:00;101725.19;;;9.26;52.71
38163;BME280;23977;53.078;18.248;2023-03-16T08:36:31;101743.81;;;9.15;55.21
38163;BME280;23977;53.078;18.248;2023-03-16T08:38:58;101733.22;;;9.04;55.40
38163;BME280;23977;53.078;18.248;2023-03-16T08:41:25;101686.63;;;9.11;55.08
38163;BME280;23977;53.078;18.248;2023-03-16T08:43:52;101750.78;;;9.91;54.01
38163;BME280;23977;53.078;18.248;2023-03-16T08:46:20;101726.38;;;9.76;52.42
38163;BME280;23977;53.078;18.248;2023-03-16T08:48:47;101717.22;;;10.30;50.60
38163;BME280;23977;53.078;18.248;2023-03-16T08:51:13;101742.81;;;12.74;46.52
38163;BME280;23977;53.078;18.248;2023-03-16T08:53:39;101727.25;;;17.74;37.44
38163;BME280;23977;53.078;18.248;2023-03-16T08:56:08;101712.41;;;21.79;30.12
38163;BME280;23977;53.078;18.248;2023-03-16T08:58:37;101645.41;;;23.15;27.37
38163;BME280;23977;53.078;18.248;2023-03-16T09:01:05;101675.78;;;27.00;22.23
38163;BME280;23977;53.078;18.248;2023-03-16T09:03:32;101758.16;;;27.09;23.26
38163;BME280;23977;53.078;18.248;2023-03-16T09:06:03;101689.38;;;25.26;23.03
38163;BME280;23977;53.078;18.248;2023-03-16T09:08:30;101764.09;;;21.91;27.68
38163;BME280;23977;53.078;18.248;2023-03-16T09:11:08;101672.19;;;19.44;28.79
38163;BME280;23977;53.078;18.248;2023-03-16T09:13:35;101742.19;;;17.38;32.63
38163;BME280;23977;53.078;18.248;2023-03-16T09:16:04;101728.41;;;15.35;36.17
38163;BME280;23977;53.078;18.248;2023-03-16T09:18:31;101728.28;;;13.93;38.54
38163;BME280;23977;53.078;18.248;2023-03-16T09:21:03;101747.13;;;12.75;41.88
38163;BME280;23977;53.078;18.248;2023-03-16T09:23:30;101783.50;;;12.20;43.27
38163;BME280;23977;53.078;18.248;2023-03-16T09:25:58;101734.38;;;10.88;45.20
38163;BME280;23977;53.078;18.248;2023-03-16T09:28:26;101744.91;;;10.18;47.54
38163;BME280;23977;53.078;18.248;2023-03-16T09:30:54;101799.59;;;9.48;51.99
38163;BME280;23977;53.078;18.248;2023-03-16T09:33:23;101789.94;;;9.47;52.90
38163;BME280;23977;53.078;18.248;2023-03-16T09:35:50;101768.66;;;9.14;53.74
38163;BME280;23977;53.078;18.248;2023-03-16T09:38:19;101808.69;;;8.79;54.47
38163;BME280;23977;53.078;18.248;2023-03-16T09:40:47;101807.63;;;8.47;55.80
38163;BME280;23977;53.078;18.248;2023-03-16T09:46:12;101816.19;;;7.82;58.71
38163;BME280;23977;53.078;18.248;2023-03-16T09:48:40;101775.44;;;7.83;58.82
38163;BME280;23977;53.078;18.248;2023-03-16T09:51:15;101783.25;;;8.42;58.20
38163;BME280;23977;53.078;18.248;2023-03-16T09:53:45;101758.75;;;8.27;56.64
38163;BME280;23977;53.078;18.248;2023-03-16T09:56:21;101791.72;;;8.47;57.45
38163;BME280;23977;53.078;18.248;2023-03-16T09:58:52;101776.84;;;8.90;55.50
38163;BME280;23977;53.078;18.248;2023-03-16T10:06:24;101826.13;;;9.26;54.74
38163;BME280;23977;53.078;18.248;2023-03-16T10:09:02;101802.31;;;8.81;55.18
38163;BME280;23977;53.078;18.248;2023-03-16T10:11:38;101774.38;;;8.55;56.86
38163;BME280;23977;53.078;18.248;2023-03-16T10:14:32;101821.59;;;8.95;56.41
38163;BME280;23977;53.078;18.248;2023-03-16T10:17:08;101791.50;;;9.05;55.37
38163;BME280;23977;53.078;18.248;2023-03-16T10:19:58;101770.38;;;9.15;55.41
38163;BME280;23977;53.078;18.248;2023-03-16T10:22:33;101825.91;;;9.07;55.81
38163;BME280;23977;53.078;18.248;2023-03-16T10:25:08;101834.81;;;9.17;55.56
38163;BME280;23977;53.078;18.248;2023-03-16T10:27:39;101829.03;;;9.23;55.82
38163;BME280;23977;53.078;18.248;2023-03-16T10:32:46;101823.94;;;9.32;55.56
38163;BME280;23977;53.078;18.248;2023-03-16T10:35:37;101841.59;;;9.21;54.83
38163;BME280;23977;53.078;18.248;2023-03-16T10:38:39;101811.03;;;8.49;56.54
38163;BME280;23977;53.078;18.248;2023-03-16T10:43:51;101836.06;;;7.52;61.97
38163;BME280;23977;53.078;18.248;2023-03-16T10:46:19;101852.00;;;7.39;63.58
38163;BME280;23977;53.078;18.248;2023-03-16T10:48:58;101850.94;;;7.41;63.52
38163;BME280;23977;53.078;18.248;2023-03-16T10:51:27;101849.56;;;7.12;65.30
38163;BME280;23977;53.078;18.248;2023-03-16T10:54:07;101848.16;;;6.82;67.98
38163;BME280;23977;53.078;18.248;2023-03-16T10:56:35;101822.59;;;6.57;69.77
38163;BME280;23977;53.078;18.248;2023-03-16T10:59:20;101831.81;;;6.38;70.96
38163;BME280;23977;53.078;18.248;2023-03-16T11:01:50;101845.88;;;6.64;70.33
38163;BME280;23977;53.078;18.248;2023-03-16T11:04:17;101858.53;;;6.59;70.97
38163;BME280;23977;53.078;18.248;2023-03-16T11:06:55;101844.72;;;6.30;72.92
38163;BME280;23977;53.078;18.248;2023-03-16T11:09:39;101863.31;;;6.54;73.45
38163;BME280;23977;53.078;18.248;2023-03-16T11:12:25;101865.75;;;6.83;70.95
38163;BME280;23977;53.078;18.248;2023-03-16T11:15:04;101826.59;;;6.62;70.05
38163;BME280;23977;53.078;18.248;2023-03-16T11:17:38;101834.00;;;6.83;70.02
38163;BME280;23977;53.078;18.248;2023-03-16T11:20:15;101830.25;;;6.85;70.15
38163;BME280;23977;53.078;18.248;2023-03-16T11:22:44;101848.75;;;6.98;70.45
38163;BME280;23977;53.078;18.248;2023-03-16T11:25:30;101801.13;;;6.98;69.45
38163;BME280;23977;53.078;18.248;2023-03-16T11:33:20;101802.31;;;8.47;63.10
38163;BME280;23977;53.078;18.248;2023-03-16T11:36:41;101860.94;;;8.89;62.46
38163;BME280;23977;53.078;18.248;2023-03-16T11:41:48;101858.31;;;8.78;61.88
38163;BME280;23977;53.078;18.248;2023-03-16T11:44:27;101862.63;;;8.91;61.75
38163;BME280;23977;53.078;18.248;2023-03-16T11:47:06;101854.63;;;9.24;60.20
38163;BME280;23977;53.078;18.248;2023-03-16T11:50:12;101857.56;;;8.87;61.01
38163;BME280;23977;53.078;18.248;2023-03-16T11:55:31;101845.16;;;8.88;61.73
38163;BME280;23977;53.078;18.248;2023-03-16T11:58:10;101863.69;;;9.11;61.23
38163;BME280;23977;53.078;18.248;2023-03-16T12:12:47;101859.13;;;9.56;58.51
38163;BME280;23977;53.078;18.248;2023-03-16T12:15:28;101865.59;;;9.63;58.90
38163;BME280;23977;53.078;18.248;2023-03-16T12:18:04;101869.44;;;9.27;60.30
38163;BME280;23977;53.078;18.248;2023-03-16T12:21:02;101847.22;;;8.84;62.80
38163;BME280;23977;53.078;18.248;2023-03-16T12:23:36;101828.50;;;8.86;62.60
38163;BME280;23977;53.078;18.248;2023-03-16T12:26:04;101849.34;;;9.02;64.04
38163;BME280;23977;53.078;18.248;2023-03-16T12:28:30;101870.56;;;9.24;64.15
38163;BME280;23977;53.078;18.248;2023-03-16T12:39:03;101884.34;;;8.50;67.26
38163;BME280;23977;53.078;18.248;2023-03-16T12:44:21;101873.09;;;9.26;64.73
38163;BME280;23977;53.078;18.248;2023-03-16T12:49:23;101879.25;;;9.59;61.80
38163;BME280;23977;53.078;18.248;2023-03-16T12:52:04;101885.38;;;9.71;62.08
38163;BME280;23977;53.078;18.248;2023-03-16T12:54:30;101851.84;;;9.58;61.83
38163;BME280;23977;53.078;18.248;2023-03-16T12:57:04;101892.06;;;10.18;59.96
38163;BME280;23977;53.078;18.248;2023-03-16T12:59:45;101893.78;;;9.87;61.17
38163;BME280;23977;53.078;18.248;2023-03-16T13:02:29;101893.03;;;9.96;60.70
38163;BME280;23977;53.078;18.248;2023-03-16T13:04:58;101894.91;;;9.85;59.87
38163;BME280;23977;53.078;18.248;2023-03-16T13:07:28;101895.16;;;9.81;59.66
38163;BME280;23977;53.078;18.248;2023-03-16T13:10:03;101895.88;;;9.72;60.85
38163;BME280;23977;53.078;18.248;2023-03-16T13:12:35;101881.13;;;9.47;60.47
38163;BME280;23977;53.078;18.248;2023-03-16T13:18:21;101906.72;;;9.59;60.86
38163;BME280;23977;53.078;18.248;2023-03-16T13:25:44;101908.22;;;9.18;61.79
38163;BME280;23977;53.078;18.248;2023-03-16T13:28:28;101910.19;;;9.05;62.87
38163;BME280;23977;53.078;18.248;2023-03-16T13:30:54;101823.81;;;8.44;64.23
38163;BME280;23977;53.078;18.248;2023-03-16T13:33:27;101898.59;;;8.83;66.02
38163;BME280;23977;53.078;18.248;2023-03-16T13:35:55;101804.47;;;8.42;66.02
38163;BME280;23977;53.078;18.248;2023-03-16T13:38:24;101862.25;;;9.06;64.03
38163;BME280;23977;53.078;18.248;2023-03-16T13:40:54;101904.84;;;9.16;63.47
38163;BME280;23977;53.078;18.248;2023-03-16T13:43:25;101918.97;;;9.17;63.03
38163;BME280;23977;53.078;18.248;2023-03-16T13:45:54;101890.00;;;9.02;61.88
38163;BME280;23977;53.078;18.248;2023-03-16T13:48:28;101856.13;;;8.83;61.79
38163;BME280;23977;53.078;18.248;2023-03-16T13:50:55;101906.69;;;9.04;61.48
38163;BME280;23977;53.078;18.248;2023-03-16T13:53:29;101736.91;;;7.78;60.73
38163;BME280;23977;53.078;18.248;2023-03-16T13:55:57;101844.78;;;8.47;59.95
38163;BME280;23977;53.078;18.248;2023-03-16T13:58:30;101922.47;;;8.72;60.50